Time;durP1;ratioP1;P1;durP2;ratioP2;P2;SDS_P1;SDS_P2;PMS_P1;PMS_P2;Temp;Humidity;BMP_temperature;BMP_pressure;BME280_temperature;BME280_humidity;BME280_pressure;Samples;Min_cycle;Max_cycle;Signal;HPM_P1;HPM_P2
2021/06/21 00:00:06;;;;;;;5.37;2.42;;;;;;;18.63;76.66;95257.28;1774005;80;21023;-60
2021/06/21 00:02:37;;;;;;;2.95;2.47;;;;;;;18.63;76.42;95261.30;1789080;80;21015;-60
2021/06/21 00:05:05;;;;;;;3.37;2.95;;;;;;;18.54;77.33;95261.31;1774281;80;21492;-60
2021/06/21 00:07:32;;;;;;;3.85;2.80;;;;;;;18.50;77.48;95266.45;1761854;80;21018;-61
2021/06/21 00:09:59;;;;;;;3.35;2.80;;;;;;;18.41;77.98;95273.63;1779257;80;21562;-60
2021/06/21 00:12:26;;;;;;;2.98;2.67;;;;;;;18.44;77.75;95278.80;1785546;80;21024;-60
2021/06/21 00:14:52;;;;;;;4.37;2.65;;;;;;;18.48;77.69;95274.54;1783090;80;21026;-61
2021/06/21 00:17:19;;;;;;;4.50;2.85;;;;;;;18.45;77.08;95276.05;1767989;80;21072;-60
2021/06/21 00:19:46;;;;;;;3.72;2.83;;;;;;;18.46;76.52;95265.73;1763903;80;21125;-60
2021/06/21 00:22:14;;;;;;;6.47;2.72;;;;;;;18.40;76.71;95271.91;1772136;80;21068;-60
2021/06/21 00:24:43;;;;;;;2.70;2.50;;;;;;;18.38;76.62;95267.50;1777354;80;21499;-60
2021/06/21 00:27:11;;;;;;;3.75;2.42;;;;;;;18.35;75.76;95270.82;1769642;80;21638;-60
2021/06/21 00:29:39;;;;;;;3.27;2.45;;;;;;;18.30;75.97;95267.53;1773338;80;20987;-60
2021/06/21 00:32:07;;;;;;;3.85;2.55;;;;;;;18.25;75.89;95262.44;1786810;80;20987;-60
2021/06/21 00:34:33;;;;;;;2.33;2.12;;;;;;;18.22;76.34;95271.06;1777841;80;21049;-60
2021/06/21 00:37:00;;;;;;;4.00;2.40;;;;;;;18.18;76.08;95270.86;1785635;80;20999;-60
2021/06/21 00:39:27;;;;;;;3.02;2.10;;;;;;;18.15;76.08;95263.88;1780000;80;21101;-60
2021/06/21 00:41:54;;;;;;;2.12;2.00;;;;;;;18.02;77.24;95261.00;1782895;80;21106;-60
2021/06/21 00:44:21;;;;;;;4.37;2.40;;;;;;;17.99;76.59;95261.14;1776689;80;21493;-60
2021/06/21 00:46:47;;;;;;;2.20;2.00;;;;;;;17.99;76.58;95257.62;1772665;80;20971;-60
2021/06/21 00:49:14;;;;;;;3.70;2.08;;;;;;;17.91;76.47;95258.03;1759897;80;21088;-60
2021/06/21 00:51:41;;;;;;;2.25;2.02;;;;;;;17.81;76.52;95263.45;1759745;80;21581;-60
2021/06/21 00:54:07;;;;;;;2.75;2.35;;;;;;;17.70;76.52;95262.18;1760143;80;20974;-61
2021/06/21 00:56:34;;;;;;;2.83;2.60;;;;;;;17.67;77.49;95265.48;1779192;80;20998;-61
2021/06/21 00:59:03;;;;;;;3.10;2.10;;;;;;;17.71;76.97;95262.59;1763666;80;21522;-60
2021/06/21 01:01:30;;;;;;;3.12;2.05;;;;;;;17.71;76.65;95259.92;1763952;80;21014;-60
2021/06/21 01:03:59;;;;;;;2.65;2.00;;;;;;;17.56;76.47;95259.83;1759722;80;21065;-60
2021/06/21 01:06:27;;;;;;;3.47;2.30;;;;;;;17.46;76.44;95268.32;1760339;80;21014;-60
2021/06/21 01:08:54;;;;;;;3.55;2.17;;;;;;;17.44;76.88;95260.86;1771584;80;21573;-60
2021/06/21 01:11:23;;;;;;;3.15;2.10;;;;;;;17.40;77.38;95261.09;1784452;80;21023;-60
2021/06/21 01:14:22;;;;;;;2.10;1.90;;;;;;;17.41;77.19;95258.36;1759587;80;21038;-60
2021/06/21 01:16:59;;;;;;;2.60;2.40;;;;;;;17.33;77.05;95259.19;1766670;80;21472;-60
2021/06/21 01:19:52;;;;;;;5.83;2.10;;;;;;;17.20;78.51;95250.95;1760668;80;21469;-61
2021/06/21 01:22:36;;;;;;;2.33;2.02;;;;;;;17.19;78.09;95253.23;1760060;80;20995;-61
2021/06/21 01:25:28;;;;;;;2.15;1.95;;;;;;;17.09;78.57;95258.16;1764586;80;21544;-61
2021/06/21 01:28:02;;;;;;;2.52;2.33;;;;;;;17.08;77.89;95259.11;1745138;80;20982;-60
2021/06/21 01:31:10;;;;;;;3.00;2.40;;;;;;;17.13;77.96;95256.66;1759648;80;21045;-60
2021/06/21 01:33:39;;;;;;;3.10;2.40;;;;;;;17.15;77.52;95262.31;1774513;80;21141;-60
2021/06/21 01:36:09;;;;;;;2.40;2.20;;;;;;;17.18;77.41;95260.82;1779214;80;21021;-60
2021/06/21 01:38:43;;;;;;;3.90;2.72;;;;;;;17.07;78.13;95258.70;1760927;80;21041;-61
2021/06/21 01:41:15;;;;;;;3.27;2.52;;;;;;;16.97;78.42;95261.89;1779236;80;20983;-61
2021/06/21 01:43:44;;;;;;;3.10;2.70;;;;;;;16.88;77.76;95261.86;1784382;80;21047;-60
2021/06/21 01:46:15;;;;;;;3.83;2.30;;;;;;;16.79;77.65;95260.99;1784448;80;21049;-61
2021/06/21 01:48:50;;;;;;;2.70;2.50;;;;;;;16.64;77.93;95256.75;1774396;80;21048;-60
2021/06/21 01:51:19;;;;;;;2.52;2.30;;;;;;;16.57;78.51;95259.31;1771034;80;21062;-61
2021/06/21 01:53:48;;;;;;;3.10;2.42;;;;;;;16.47;79.50;95267.34;1762090;80;21475;-60
2021/06/21 01:56:31;;;;;;;4.25;2.65;;;;;;;16.47;78.59;95258.02;1756186;80;21023;-61
2021/06/21 01:59:01;;;;;;;2.60;2.40;;;;;;;16.41;78.73;95263.17;1770116;80;21009;-60
2021/06/21 02:01:29;;;;;;;4.00;2.70;;;;;;;16.33;79.86;95273.77;1768930;80;21097;-60
2021/06/21 02:03:59;;;;;;;2.37;2.02;;;;;;;16.30;79.22;95272.58;1775688;80;21536;-60
2021/06/21 02:06:31;;;;;;;2.45;2.20;;;;;;;16.30;79.74;95270.77;1765328;80;20982;-61
2021/06/21 02:09:00;;;;;;;3.67;2.27;;;;;;;16.26;79.86;95265.69;1775816;80;20995;-60
2021/06/21 02:11:27;;;;;;;2.83;1.98;;;;;;;16.25;80.43;95259.95;1787684;80;20979;-60
2021/06/21 02:13:55;;;;;;;3.85;2.12;;;;;;;16.26;79.77;95261.22;1790096;80;21094;-60
2021/06/21 02:16:24;;;;;;;3.05;2.25;;;;;;;16.26;79.47;95259.03;1787476;80;21031;-60
2021/06/21 02:18:52;;;;;;;2.22;2.02;;;;;;;16.30;79.55;95266.78;1767652;80;21080;-60
2021/06/21 02:21:24;;;;;;;2.15;1.87;;;;;;;16.33;79.32;95260.01;1781669;80;21033;-60
2021/06/21 02:23:52;;;;;;;2.45;2.10;;;;;;;16.27;79.39;95266.93;1774183;80;21038;-60
2021/06/21 02:26:25;;;;;;;3.77;2.70;;;;;;;16.25;79.78;95270.59;1791121;80;21596;-60
2021/06/21 02:28:59;;;;;;;4.22;2.42;;;;;;;16.25;80.52;95271.45;1765168;80;21065;-60
2021/06/21 02:31:26;;;;;;;2.27;2.08;;;;;;;16.29;80.32;95266.40;1788067;80;21049;-61
2021/06/21 02:33:53;;;;;;;2.52;2.33;;;;;;;16.31;80.15;95262.34;1778055;80;21547;-60
2021/06/21 02:36:20;;;;;;;3.40;2.75;;;;;;;16.33;80.74;95266.66;1767545;80;21021;-60
2021/06/21 02:38:46;;;;;;;3.10;2.42;;;;;;;16.37;81.25;95266.90;1774340;80;21011;-61
2021/06/21 02:41:13;;;;;;;3.02;2.33;;;;;;;16.49;81.27;95269.47;1761734;80;21492;-60
2021/06/21 02:43:39;;;;;;;2.50;2.30;;;;;;;16.56;80.54;95262.06;1785176;80;21545;-60
2021/06/21 02:46:06;;;;;;;4.37;2.42;;;;;;;16.60;80.29;95258.30;1781157;80;20999;-60
2021/06/21 02:48:33;;;;;;;3.40;3.10;;;;;;;16.66;80.30;95258.88;1781048;80;21085;-60
2021/06/21 02:51:02;;;;;;;4.97;3.05;;;;;;;16.72;80.83;95264.85;1772607;80;21519;-60
2021/06/21 02:53:58;;;;;;;2.72;2.50;;;;;;;16.85;80.74;95268.20;1773917;80;21539;-60
2021/06/21 02:56:38;;;;;;;2.27;2.02;;;;;;;16.92;80.22;95264.78;1777452;80;21113;-60
2021/06/21 02:59:09;;;;;;;2.42;2.10;;;;;;;16.94;79.64;95262.91;1745656;80;21558;-60
2021/06/21 03:01:45;;;;;;;4.70;2.20;;;;;;;16.97;79.50;95261.42;1782476;80;21070;-60
2021/06/21 03:04:14;;;;;;;3.45;2.35;;;;;;;16.97;79.24;95262.75;1774581;80;21026;-60
2021/06/21 03:06:43;;;;;;;5.97;2.90;;;;;;;16.94;80.09;95268.23;1778991;80;21584;-60
2021/06/21 03:09:12;;;;;;;3.10;2.90;;;;;;;17.04;80.42;95268.66;1774210;80;21121;-60
2021/06/21 03:11:42;;;;;;;5.62;3.10;;;;;;;17.13;80.10;95267.33;1760285;80;21630;-60
2021/06/21 03:14:10;;;;;;;6.28;3.62;;;;;;;17.28;79.99;95271.89;1773218;80;21007;-60
2021/06/21 03:16:39;;;;;;;3.95;3.55;;;;;;;17.42;79.47;95269.88;1788425;80;21018;-61
2021/06/21 03:19:06;;;;;;;3.30;2.83;;;;;;;17.48;79.14;95269.08;1779341;80;21058;-60
2021/06/21 03:21:33;;;;;;;4.33;3.50;;;;;;;17.48;78.50;95266.41;1768751;80;21027;-61
2021/06/21 03:23:59;;;;;;;3.05;2.80;;;;;;;17.45;79.05;95263.05;1771327;80;20998;-64
2021/06/21 03:26:29;;;;;;;3.75;3.25;;;;;;;17.47;79.31;95259.84;1782089;80;21702;-61
2021/06/21 03:28:58;;;;;;;4.15;2.62;;;;;;;17.39;79.07;95258.90;1782540;80;21089;-61
2021/06/21 03:31:25;;;;;;;2.70;2.50;;;;;;;17.35;79.48;95259.13;1789919;80;21049;-60
2021/06/21 03:33:52;;;;;;;4.22;3.05;;;;;;;17.32;79.23;95256.62;1778338;80;21086;-61
2021/06/21 03:36:19;;;;;;;4.33;3.33;;;;;;;17.26;79.40;95253.77;1781250;80;21456;-61
2021/06/21 03:38:46;;;;;;;3.80;3.37;;;;;;;17.24;80.09;95255.20;1774617;80;21129;-60
2021/06/21 03:41:13;;;;;;;5.10;3.60;;;;;;;17.26;80.08;95255.98;1783354;80;21015;-60
2021/06/21 03:43:40;;;;;;;6.92;3.75;;;;;;;17.30;80.28;95248.20;1785110;80;21110;-61
2021/06/21 03:46:09;;;;;;;3.92;3.52;;;;;;;17.38;79.89;95249.16;1789560;80;21023;-61
2021/06/21 03:48:37;;;;;;;4.03;2.92;;;;;;;17.41;79.78;95248.13;1789992;80;20983;-60
2021/06/21 03:51:05;;;;;;;6.03;5.45;;;;;;;17.46;79.49;95252.31;1785970;80;21060;-61
2021/06/21 03:53:32;;;;;;;6.55;4.20;;;;;;;17.41;79.27;95258.36;1769122;80;21068;-60
2021/06/21 03:55:59;;;;;;;3.30;3.10;;;;;;;17.37;79.06;95259.44;1772980;80;21030;-61
2021/06/21 03:58:26;;;;;;;5.35;3.35;;;;;;;17.39;79.53;95257.56;1767973;80;21092;-60
2021/06/21 04:00:52;;;;;;;3.70;3.40;;;;;;;17.48;79.15;95262.41;1781348;80;21524;-60
2021/06/21 04:03:19;;;;;;;4.12;3.30;;;;;;;17.49;78.95;95252.16;1786972;80;21090;-60
2021/06/21 04:05:46;;;;;;;3.70;3.40;;;;;;;17.60;78.93;95256.07;1767399;80;21022;-60
2021/06/21 04:08:16;;;;;;;4.75;3.60;;;;;;;17.62;78.73;95261.72;1772592;80;21543;-60
2021/06/21 04:10:44;;;;;;;4.78;3.37;;;;;;;17.65;78.89;95270.89;1768515;80;21057;-61
2021/06/21 04:13:14;;;;;;;5.28;3.50;;;;;;;17.73;79.13;95276.69;1759378;80;21077;-60
2021/06/21 04:15:42;;;;;;;5.67;4.35;;;;;;;17.77;79.31;95272.55;1761101;80;21105;-61
2021/06/21 04:18:13;;;;;;;7.37;4.25;;;;;;;17.77;79.67;95266.73;1775283;80;21031;-61
2021/06/21 04:20:42;;;;;;;3.75;2.83;;;;;;;17.89;79.78;95259.46;1763714;80;21019;-60
2021/06/21 04:23:10;;;;;;;3.85;3.45;;;;;;;18.00;79.17;95262.03;1760138;80;20990;-60
2021/06/21 04:25:38;;;;;;;5.50;4.17;;;;;;;17.95;79.04;95253.78;1760214;80;21061;-60
2021/06/21 04:28:06;;;;;;;7.65;4.60;;;;;;;18.04;79.07;95252.89;1776551;80;21542;-60
2021/06/21 04:30:33;;;;;;;5.15;4.28;;;;;;;18.09;79.13;95257.07;1773729;80;21592;-60
2021/06/21 04:33:00;;;;;;;5.90;5.00;;;;;;;18.24;79.03;95257.17;1787838;80;21047;-60
2021/06/21 04:35:27;;;;;;;5.22;4.72;;;;;;;18.31;78.62;95262.09;1772082;80;21548;-60
2021/06/21 04:37:56;;;;;;;7.17;5.17;;;;;;;18.43;78.36;95257.91;1775439;80;21074;-60
2021/06/21 04:40:28;;;;;;;6.67;5.15;;;;;;;18.53;78.18;95258.27;1743402;80;21022;-60
2021/06/21 04:42:55;;;;;;;7.25;5.90;;;;;;;18.66;78.19;95252.61;1779454;80;21465;-60
2021/06/21 04:45:22;;;;;;;7.22;5.72;;;;;;;18.81;77.97;95257.61;1782958;80;20975;-60
2021/06/21 04:47:49;;;;;;;7.25;6.00;;;;;;;18.90;77.66;95262.45;1781352;80;21043;-60
2021/06/21 04:50:18;;;;;;;7.65;6.10;;;;;;;18.95;77.15;95266.17;1778810;80;21018;-61
2021/06/21 04:52:46;;;;;;;9.00;5.75;;;;;;;18.95;76.92;95267.06;1787720;80;21009;-60
2021/06/21 04:55:17;;;;;;;6.42;5.72;;;;;;;19.02;77.15;95272.45;1783899;80;21066;-61
2021/06/21 04:57:44;;;;;;;6.28;5.65;;;;;;;19.10;76.88;95271.12;1780449;80;21614;-60
2021/06/21 05:00:18;;;;;;;7.87;5.85;;;;;;;19.02;76.78;95272.45;1759851;80;21084;-61
2021/06/21 05:02:46;;;;;;;7.37;6.40;;;;;;;19.02;76.78;95272.45;1770232;80;21050;-61
2021/06/21 05:05:14;;;;;;;7.92;6.10;;;;;;;19.10;77.40;95276.47;1782750;80;21058;-60
2021/06/21 05:07:41;;;;;;;6.58;5.72;;;;;;;19.27;77.29;95264.33;1782726;80;21578;-60
2021/06/21 05:10:12;;;;;;;7.42;5.58;;;;;;;19.45;76.53;95268.63;1774184;80;21493;-60
2021/06/21 05:12:39;;;;;;;6.25;4.50;;;;;;;19.61;76.17;95269.91;1767239;80;21133;-60
2021/06/21 05:15:08;;;;;;;8.53;5.08;;;;;;;19.67;75.07;95272.25;1763831;80;21007;-60
2021/06/21 05:17:35;;;;;;;6.37;4.67;;;;;;;19.74;74.79;95267.40;1785613;80;20983;-60
2021/06/21 05:20:04;;;;;;;7.10;4.42;;;;;;;19.78;74.49;95266.27;1783085;80;21023;-60
2021/06/21 05:22:31;;;;;;;5.05;4.05;;;;;;;19.77;74.50;95262.34;1769073;80;21030;-60
2021/06/21 05:24:59;;;;;;;5.03;4.50;;;;;;;19.77;74.79;95273.91;1745229;80;21058;-61
2021/06/21 05:27:30;;;;;;;3.83;3.50;;;;;;;19.81;75.03;95277.27;1760090;80;21002;-60
2021/06/21 05:29:58;;;;;;;4.20;3.85;;;;;;;19.87;74.93;95284.44;1759624;80;21049;-61
2021/06/21 05:32:26;;;;;;;5.17;3.60;;;;;;;19.93;74.78;95279.67;1767372;80;21090;-60
2021/06/21 05:34:53;;;;;;;4.33;3.83;;;;;;;19.95;74.85;95274.61;1768711;80;21021;-61
2021/06/21 05:37:19;;;;;;;6.83;3.80;;;;;;;19.80;74.08;95268.36;1782578;80;21023;-63
2021/06/21 05:39:46;;;;;;;4.35;3.95;;;;;;;19.80;74.08;95268.36;1787072;80;21102;-60
2021/06/21 05:42:14;;;;;;;4.20;3.80;;;;;;;19.73;74.53;95268.37;1783333;80;21493;-60
2021/06/21 05:44:41;;;;;;;4.30;3.90;;;;;;;19.88;74.74;95278.60;1751785;80;21045;-60
2021/06/21 05:47:08;;;;;;;4.28;3.80;;;;;;;20.03;74.77;95275.02;1769660;80;21025;-60
2021/06/21 05:49:34;;;;;;;6.08;3.70;;;;;;;20.16;74.30;95277.81;1780752;80;21046;-60
2021/06/21 05:52:01;;;;;;;6.22;4.30;;;;;;;20.28;74.33;95281.05;1771471;80;21078;-60
2021/06/21 05:54:27;;;;;;;4.50;4.10;;;;;;;20.45;74.02;95272.45;1764411;80;21155;-60
2021/06/21 05:56:54;;;;;;;4.80;4.30;;;;;;;20.58;73.82;95272.57;1759777;80;21532;-60
2021/06/21 05:59:21;;;;;;;5.20;4.45;;;;;;;20.85;72.12;95278.86;1774045;80;21010;-60
2021/06/21 06:01:47;;;;;;;4.62;4.22;;;;;;;20.85;72.12;95278.86;1772575;80;21091;-60
2021/06/21 06:04:14;;;;;;;6.92;5.10;;;;;;;20.91;72.46;95279.80;1773936;80;21018;-60
2021/06/21 06:06:40;;;;;;;6.20;4.20;;;;;;;20.84;71.74;95270.90;1772208;80;21590;-60
2021/06/21 06:09:07;;;;;;;5.90;4.10;;;;;;;20.83;71.55;95267.85;1772543;80;20987;-61
2021/06/21 06:11:34;;;;;;;4.87;4.35;;;;;;;20.77;71.27;95276.30;1767517;80;21030;-60
2021/06/21 06:14:01;;;;;;;5.37;4.08;;;;;;;20.66;71.42;95275.63;1761716;80;21049;-60
2021/06/21 06:16:27;;;;;;;4.05;3.65;;;;;;;20.66;72.30;95278.30;1775844;80;21017;-60
2021/06/21 06:18:54;;;;;;;5.20;4.58;;;;;;;20.75;72.23;95271.02;1772061;80;21516;-60
2021/06/21 06:21:20;;;;;;;4.95;4.25;;;;;;;20.88;71.76;95277.31;1788985;80;21033;-60
2021/06/21 06:23:47;;;;;;;7.03;4.42;;;;;;;21.01;71.35;95266.66;1789161;80;21069;-61
2021/06/21 06:26:14;;;;;;;5.28;4.47;;;;;;;21.08;71.23;95264.45;1769841;80;21602;-60
2021/06/21 06:28:41;;;;;;;7.42;3.77;;;;;;;21.21;71.46;95264.50;1781016;80;21130;-60
2021/06/21 06:31:08;;;;;;;3.98;3.67;;;;;;;21.33;70.59;95261.86;1773734;80;21348;-60
2021/06/21 06:33:35;;;;;;;5.35;3.42;;;;;;;21.50;70.34;95264.81;1788173;80;21204;-61
2021/06/21 06:36:02;;;;;;;4.87;3.67;;;;;;;21.65;69.95;95268.28;1768351;80;21045;-60
2021/06/21 06:38:29;;;;;;;4.12;3.30;;;;;;;21.83;70.19;95266.17;1779122;80;21114;-60
2021/06/21 06:40:56;;;;;;;7.95;3.25;;;;;;;21.97;69.26;95257.16;1789780;80;21043;-60
2021/06/21 06:43:23;;;;;;;4.15;3.77;;;;;;;22.06;68.23;95257.88;1780267;80;21002;-60
2021/06/21 06:45:50;;;;;;;3.60;3.25;;;;;;;22.15;67.42;95259.05;1789375;80;21015;-60
2021/06/21 06:48:17;;;;;;;3.35;3.10;;;;;;;22.27;68.54;95250.66;1788994;80;21066;-60
2021/06/21 06:50:43;;;;;;;4.60;3.90;;;;;;;22.37;67.34;95248.55;1774633;80;21062;-60
2021/06/21 06:53:10;;;;;;;4.67;3.90;;;;;;;22.51;67.49;95248.92;1760257;80;21488;-60
2021/06/21 06:58:22;;;;;;;4.40;4.00;;;;;;;22.59;65.96;95242.50;1786522;80;21019;-61
2021/06/21 07:00:49;;;;;;;5.42;3.90;;;;;;;22.71;67.44;95242.12;1775258;80;21061;-60
2021/06/21 07:03:15;;;;;;;4.00;3.60;;;;;;;22.84;66.33;95239.39;1760181;80;21001;-60
2021/06/21 07:05:43;;;;;;;5.58;3.70;;;;;;;22.94;65.87;95244.48;1768330;80;21023;-60
2021/06/21 07:08:10;;;;;;;4.05;3.75;;;;;;;23.00;65.35;95238.66;1780665;80;21524;-60
2021/06/21 07:10:36;;;;;;;6.28;4.25;;;;;;;23.08;65.62;95242.14;1787262;80;21105;-61
2021/06/21 07:13:03;;;;;;;6.03;4.35;;;;;;;23.22;66.45;95250.55;1781899;80;21015;-60
2021/06/21 07:15:30;;;;;;;4.40;3.95;;;;;;;23.33;65.44;95252.83;1769289;80;21082;-60
2021/06/21 07:17:56;;;;;;;5.67;4.03;;;;;;;23.39;65.08;95247.47;1774412;80;21521;-60
2021/06/21 07:20:23;;;;;;;6.47;4.30;;;;;;;23.52;65.33;95248.25;1790700;80;21071;-60
2021/06/21 07:22:49;;;;;;;5.70;3.67;;;;;;;23.65;65.29;95246.84;1787169;80;21504;-60
2021/06/21 07:25:16;;;;;;;4.95;3.87;;;;;;;23.73;65.58;95245.79;1789296;80;21022;-60
2021/06/21 07:27:43;;;;;;;5.05;4.22;;;;;;;23.88;65.25;95242.91;1785657;80;21038;-60
2021/06/21 07:30:11;;;;;;;5.80;4.00;;;;;;;23.94;64.16;95235.22;1787331;80;21039;-60
2021/06/21 07:32:38;;;;;;;5.62;3.65;;;;;;;23.98;64.16;95237.17;1775081;80;21082;-60
2021/06/21 07:35:07;;;;;;;5.03;3.95;;;;;;;24.09;63.21;95248.00;1768869;80;21022;-60
2021/06/21 07:37:33;;;;;;;4.95;3.50;;;;;;;24.28;63.59;95241.16;1769205;80;21025;-60
2021/06/21 07:40:00;;;;;;;4.10;3.80;;;;;;;24.38;62.68;95238.96;1763334;80;21022;-61
2021/06/21 07:42:26;;;;;;;4.60;3.70;;;;;;;24.53;62.24;95239.62;1764046;80;21049;-60
2021/06/21 07:44:53;;;;;;;3.70;3.40;;;;;;;24.61;59.58;95236.31;1761082;80;21022;-60
2021/06/21 07:47:19;;;;;;;3.45;3.15;;;;;;;24.65;59.80;95232.39;1783809;80;21062;-61
2021/06/21 07:49:46;;;;;;;4.25;3.87;;;;;;;24.75;59.26;95237.42;1772346;80;20979;-60
2021/06/21 07:52:12;;;;;;;4.83;3.85;;;;;;;24.84;58.93;95228.56;1771515;80;21552;-60
2021/06/21 07:54:39;;;;;;;5.67;3.80;;;;;;;24.99;60.52;95238.60;1783322;80;20991;-60
2021/06/21 07:57:07;;;;;;;3.85;3.52;;;;;;;25.14;59.92;95236.99;1791052;80;21022;-61
2021/06/21 07:59:33;;;;;;;4.15;3.77;;;;;;;25.15;59.25;95231.95;1778450;80;21105;-60
2021/06/21 08:02:00;;;;;;;3.80;3.50;;;;;;;25.23;59.59;95232.23;1789358;80;21030;-60
2021/06/21 08:04:26;;;;;;;4.03;3.60;;;;;;;25.33;59.71;95233.19;1773100;80;21113;-60
2021/06/21 08:06:52;;;;;;;4.55;3.70;;;;;;;25.44;59.41;95231.78;1779050;80;21022;-60
2021/06/21 08:09:19;;;;;;;6.30;4.17;;;;;;;25.57;60.15;95230.76;1779337;80;21062;-61
2021/06/21 08:11:45;;;;;;;4.45;3.52;;;;;;;25.64;58.51;95230.11;1780474;80;21315;-61
2021/06/21 08:14:12;;;;;;;3.77;3.40;;;;;;;25.64;59.32;95231.47;1787228;80;21050;-61
2021/06/21 08:16:38;;;;;;;6.83;3.60;;;;;;;25.69;59.44;95229.23;1783234;80;21452;-60
2021/06/21 08:19:04;;;;;;;4.28;3.87;;;;;;;25.77;60.09;95223.17;1767266;80;21018;-61
2021/06/21 08:21:31;;;;;;;3.70;3.40;;;;;;;25.89;58.78;95225.37;1782437;80;21497;-61
2021/06/21 08:23:58;;;;;;;3.80;3.50;;;;;;;25.92;59.67;95229.16;1745898;80;21013;-60
2021/06/21 08:26:25;;;;;;;3.70;3.40;;;;;;;26.07;59.53;95223.78;1761885;80;21017;-60
2021/06/21 08:28:52;;;;;;;3.35;3.02;;;;;;;26.02;58.64;95227.88;1767248;80;21010;-60
2021/06/21 08:31:18;;;;;;;3.80;3.50;;;;;;;25.98;59.75;95229.12;1767434;80;20970;-60
2021/06/21 08:33:45;;;;;;;3.80;3.37;;;;;;;26.16;59.48;95224.85;1782723;80;21102;-60
2021/06/21 08:36:11;;;;;;;3.92;3.62;;;;;;;26.32;59.17;95226.58;1787507;80;21493;-60
2021/06/21 08:38:38;;;;;;;6.33;3.80;;;;;;;26.51;58.35;95224.95;1769856;80;21072;-60
2021/06/21 08:41:07;;;;;;;4.10;3.80;;;;;;;26.76;58.70;95237.21;1774500;80;21023;-60
2021/06/21 08:43:34;;;;;;;4.67;3.62;;;;;;;26.81;56.95;95233.59;1768735;80;21146;-61
2021/06/21 08:46:02;;;;;;;4.70;3.75;;;;;;;27.00;56.14;95228.77;1784762;80;21047;-60
2021/06/21 08:48:31;;;;;;;3.70;3.40;;;;;;;27.13;55.76;95236.64;1770023;80;21033;-60
2021/06/21 08:50:59;;;;;;;3.80;3.50;;;;;;;27.17;55.87;95227.25;1777779;80;21014;-61
2021/06/21 08:53:26;;;;;;;4.53;3.60;;;;;;;27.24;56.39;95234.34;1782479;80;21013;-60
2021/06/21 08:55:54;;;;;;;4.03;3.60;;;;;;;27.07;57.06;95236.70;1772371;80;21524;-60
2021/06/21 08:58:20;;;;;;;4.35;4.05;;;;;;;26.74;55.79;95232.45;1787091;80;21006;-60
2021/06/21 09:00:47;;;;;;;4.90;3.80;;;;;;;26.59;56.11;95228.41;1781150;80;21034;-64
2021/06/21 09:03:16;;;;;;;3.45;3.25;;;;;;;26.33;56.43;95235.53;1763959;80;21026;-60
2021/06/21 09:05:43;;;;;;;5.42;3.95;;;;;;;26.11;56.52;95237.91;1775982;80;21058;-61
2021/06/21 09:08:10;;;;;;;4.78;3.70;;;;;;;25.97;57.10;95240.93;1760058;80;21022;-60
2021/06/21 09:10:39;;;;;;;5.00;3.65;;;;;;;25.89;57.86;95247.00;1773121;80;21480;-60
2021/06/21 09:13:17;;;;;;;7.42;4.10;;;;;;;25.85;57.48;95246.88;1767750;80;21057;-60
2021/06/21 09:15:56;;;;;;;3.70;3.35;;;;;;;25.72;57.99;95243.48;1759278;80;21077;-61
2021/06/21 09:18:35;;;;;;;5.33;3.80;;;;;;;25.77;58.60;95244.80;1780279;80;21500;-60
2021/06/21 09:21:27;;;;;;;4.58;3.50;;;;;;;25.87;57.87;95232.25;1771500;80;21018;-61
2021/06/21 09:23:58;;;;;;;4.10;3.67;;;;;;;26.12;61.24;95230.16;1772371;80;21018;-60
2021/06/21 09:26:31;;;;;;;7.28;3.58;;;;;;;26.57;56.67;95232.58;1779826;80;21062;-60
2021/06/21 09:29:00;;;;;;;3.55;3.33;;;;;;;26.87;56.08;95242.55;1788266;80;21082;-61
2021/06/21 09:31:28;;;;;;;3.80;3.50;;;;;;;27.22;54.78;95235.00;1772955;80;20991;-68
2021/06/21 09:34:14;;;;;;;4.83;3.40;;;;;;;27.50;54.80;95229.27;1789654;80;21066;-61
2021/06/21 09:36:41;;;;;;;6.17;3.30;;;;;;;27.67;54.46;95224.51;1786241;80;21031;-60
2021/06/21 09:39:25;;;;;;;4.60;3.37;;;;;;;27.88;53.28;95225.74;1782525;80;21137;-61
2021/06/21 09:42:15;;;;;;;4.67;3.62;;;;;;;28.16;53.25;95225.35;1767300;80;21042;-60
2021/06/21 09:44:50;;;;;;;3.37;3.08;;;;;;;28.45;52.27;95218.55;1780322;80;21104;-61
2021/06/21 09:47:35;;;;;;;3.22;2.98;;;;;;;28.81;52.11;95218.70;1787427;80;21023;-61
2021/06/21 09:50:19;;;;;;;5.25;3.10;;;;;;;29.11;50.32;95210.80;1771526;80;21128;-61
2021/06/21 09:52:57;;;;;;;3.35;3.05;;;;;;;29.42;50.17;95211.83;1788693;80;21075;-60
2021/06/21 09:55:40;;;;;;;6.55;3.20;;;;;;;29.11;48.61;95218.11;1786847;80;21019;-60
2021/06/21 09:58:19;;;;;;;7.15;3.52;;;;;;;28.59;49.09;95215.00;1785643;80;21023;-60
2021/06/21 10:00:51;;;;;;;4.70;3.37;;;;;;;28.15;49.64;95222.77;1778078;80;21026;-60
2021/06/21 10:03:22;;;;;;;5.70;3.20;;;;;;;27.81;50.04;95223.21;1759997;80;21089;-61
2021/06/21 10:06:08;;;;;;;3.17;2.85;;;;;;;27.36;50.35;95225.09;1778596;80;20975;-60
2021/06/21 10:08:52;;;;;;;3.65;3.35;;;;;;;27.06;51.45;95221.93;1773470;80;21022;-61
2021/06/21 10:11:41;;;;;;;4.65;3.05;;;;;;;26.70;52.36;95229.14;1764652;80;21033;-61
2021/06/21 10:14:10;;;;;;;3.92;3.52;;;;;;;26.23;52.46;95226.52;1781188;80;21081;-60
2021/06/21 10:16:39;;;;;;;5.50;3.77;;;;;;;26.08;53.26;95225.52;1760116;80;21464;-61
2021/06/21 10:19:07;;;;;;;6.97;3.35;;;;;;;25.84;55.17;95228.42;1728427;80;21030;-60
2021/06/21 10:21:37;;;;;;;4.17;3.45;;;;;;;25.65;55.07;95234.55;1786873;80;21030;-60
2021/06/21 10:24:06;;;;;;;3.70;3.40;;;;;;;25.59;55.75;95230.14;1765751;80;20982;-60
2021/06/21 10:26:38;;;;;;;5.12;3.55;;;;;;;25.52;56.02;95227.59;1787718;80;21106;-60
2021/06/21 10:29:05;;;;;;;4.70;3.47;;;;;;;25.50;56.49;95233.61;1773095;80;21009;-60
2021/06/21 10:31:34;;;;;;;4.12;3.25;;;;;;;25.48;56.82;95233.25;1786627;80;21022;-60
2021/06/21 10:34:04;;;;;;;5.00;3.45;;;;;;;25.44;57.07;95233.12;1772071;80;21034;-60
2021/06/21 10:36:50;;;;;;;4.28;3.87;;;;;;;25.33;59.29;95225.58;1764155;80;21018;-61
2021/06/21 10:39:26;;;;;;;6.40;3.90;;;;;;;25.28;58.61;95222.41;1770057;80;21010;-60
2021/06/21 10:42:10;;;;;;;5.42;3.42;;;;;;;25.05;59.50;95244.87;1768437;80;21564;-63
2021/06/21 10:44:51;;;;;;;3.83;3.40;;;;;;;24.90;59.12;95265.51;1779227;80;21022;-60
2021/06/21 10:47:41;;;;;;;6.78;3.20;;;;;;;24.60;58.28;95277.77;1773135;80;21020;-60
2021/06/21 10:50:21;;;;;;;4.33;2.98;;;;;;;24.23;57.77;95272.52;1763977;80;21078;-60
2021/06/21 10:52:56;;;;;;;2.85;2.62;;;;;;;23.89;58.45;95268.86;1767741;80;21132;-61
2021/06/21 10:55:40;;;;;;;5.12;2.90;;;;;;;23.60;58.31;95281.34;1783020;80;21569;-60
2021/06/21 10:58:27;;;;;;;7.45;3.20;;;;;;;23.31;59.03;95289.77;1760424;80;21108;-60
2021/06/21 11:00:56;;;;;;;6.08;3.40;;;;;;;23.10;61.20;95295.36;1770499;80;21552;-60
2021/06/21 11:03:34;;;;;;;8.85;3.50;;;;;;;22.92;62.62;95295.33;1779472;80;21006;-60
2021/06/21 11:06:07;;;;;;;6.72;3.72;;;;;;;22.82;65.59;95296.48;1774989;80;21054;-60
2021/06/21 11:08:45;;;;;;;4.60;3.33;;;;;;;22.70;66.20;95299.55;1783143;80;21023;-60
2021/06/21 11:11:38;;;;;;;5.00;2.85;;;;;;;22.58;66.96;95304.45;1762740;80;21152;-60
2021/06/21 11:14:13;;;;;;;;;;;;;;;22.39;68.83;95297.69;1785106;80;21022;-62
2021/06/21 11:16:43;;;;;;;5.53;2.75;;;;;;;22.20;70.09;95291.41;1782041;80;20100;-60
2021/06/21 11:19:26;;;;;;;5.72;2.62;;;;;;;22.14;68.91;95287.75;1786975;80;21036;-60
2021/06/21 11:22:03;;;;;;;3.25;2.10;;;;;;;22.15;70.38;95284.11;1770723;80;20999;-60
2021/06/21 11:24:49;;;;;;;4.17;2.90;;;;;;;22.15;69.81;95281.42;1772064;80;21496;-60
2021/06/21 11:27:23;;;;;;;4.53;2.60;;;;;;;22.18;70.53;95279.86;1767155;80;21086;-60
2021/06/21 11:29:57;;;;;;;3.33;2.42;;;;;;;22.29;69.65;95278.28;1741429;81;21031;-60
2021/06/21 11:32:26;;;;;;;5.03;3.10;;;;;;;22.40;70.33;95277.92;1737034;81;21006;-61
2021/06/21 11:35:00;;;;;;;4.37;2.72;;;;;;;22.45;71.80;95274.87;1741516;81;21076;-60
2021/06/21 11:37:38;;;;;;;2.95;2.60;;;;;;;22.63;72.09;95276.78;1738442;81;21556;-60
2021/06/21 11:40:24;;;;;;;4.25;2.20;;;;;;;22.92;71.43;95281.88;1729761;81;21117;-60
2021/06/21 11:43:06;;;;;;;2.75;2.33;;;;;;;23.26;70.10;95288.39;1736676;81;21558;-60
2021/06/21 11:46:00;;;;;;;4.20;2.80;;;;;;;23.48;69.26;95288.49;1752879;81;20991;-60
2021/06/21 11:48:35;;;;;;;4.15;2.83;;;;;;;23.73;68.34;95286.69;1735463;81;21078;-61
2021/06/21 11:51:14;;;;;;;3.52;2.70;;;;;;;24.06;67.26;95285.95;1747221;81;21026;-61